Airport View

Enter AWOS ICAO identifier for current METAR.

ex. KFNL

KRNO 191855Z 00000KT 10SM FEW090 29/05 A3007 RMK AO2 SLP119 T02940050

19 Jun 2019 19:02

Phone: 775-324-6659

Other Area AWOS: KRTS - KCXP - KTRK - KMEV

TAF KRNO 191840Z 1919/2018 VRB04KT P6SM SKC FM192000 31015G25KT P6SM SKC FM200400 32011KT P6SM SKC FM200800 20006KT P6SM SKC